logo
Rechercher aéroport 
image banner adimage banner adimage banner ad
image banner ad

FAHOLB - Holbank

Situé à , South Africa

ICAO - , IATA -

Données fournies par Airmate  

Information générale

Coordonnées: S26°34'37" E30°14'30"
Élévation : 5557 feet MSL.
 
Voir autres Aéroports à Mpumalanga

Données opérationnelles

Special qualification required
Heure actuelle UTC:
Heure actuelle locale:
Météo à : FAEO - Ermelo ( 27 km )
METAR: FAEO 240637Z 13001KT CAVOK 15/03 Q1029
Voir NOTAMs / SUP AIP / TFR affectant cet aéroport [VIEW]
Fréquences de communication: [VIEW]

Pistes:

Identifiant RWYQFULongueur (ft)Largeur (ft)SurfaceLDA (ft)
15144°459349ASPH
33324°459349ASPH
1195°360949ASPH
29275°360949ASPH

Coordonnées de l'aéroport

Adresse: South Africa

Vue satellite de FAHOLB